sensor_id;sensor_type;location;lat;lon;timestamp;P1;durP1;ratioP1;P2;durP2;ratioP2
74074;SDS011;62428;51.412;5.432;2023-05-02T00:02:16;32.53;;;15.25;;
74074;SDS011;62428;51.412;5.432;2023-05-02T00:04:41;35.23;;;15.03;;
74074;SDS011;62428;51.412;5.432;2023-05-02T00:07:07;34.73;;;15.03;;
74074;SDS011;62428;51.412;5.432;2023-05-02T00:09:32;32.73;;;14.30;;
74074;SDS011;62428;51.412;5.432;2023-05-02T00:11:58;29.05;;;13.70;;
74074;SDS011;62428;51.412;5.432;2023-05-02T00:14:23;31.47;;;13.90;;
74074;SDS011;62428;51.412;5.432;2023-05-02T00:16:49;29.33;;;13.50;;
74074;SDS011;62428;51.412;5.432;2023-05-02T00:19:14;31.37;;;14.17;;
74074;SDS011;62428;51.412;5.432;2023-05-02T00:21:40;34.50;;;13.80;;
74074;SDS011;62428;51.412;5.432;2023-05-02T00:24:05;28.33;;;13.10;;
74074;SDS011;62428;51.412;5.432;2023-05-02T00:26:30;29.52;;;12.65;;
74074;SDS011;62428;51.412;5.432;2023-05-02T00:28:56;28.33;;;12.80;;
74074;SDS011;62428;51.412;5.432;2023-05-02T00:31:22;31.00;;;12.98;;
74074;SDS011;62428;51.412;5.432;2023-05-02T00:33:48;30.97;;;13.40;;
74074;SDS011;62428;51.412;5.432;2023-05-02T00:36:14;28.93;;;12.43;;
74074;SDS011;62428;51.412;5.432;2023-05-02T00:38:40;28.50;;;12.60;;
74074;SDS011;62428;51.412;5.432;2023-05-02T00:41:06;26.90;;;12.97;;
74074;SDS011;62428;51.412;5.432;2023-05-02T00:43:31;29.33;;;13.27;;
74074;SDS011;62428;51.412;5.432;2023-05-02T00:45:56;29.20;;;12.40;;
74074;SDS011;62428;51.412;5.432;2023-05-02T00:48:23;30.70;;;12.90;;
74074;SDS011;62428;51.412;5.432;2023-05-02T00:50:49;26.95;;;12.23;;
74074;SDS011;62428;51.412;5.432;2023-05-02T00:53:15;26.47;;;12.17;;
74074;SDS011;62428;51.412;5.432;2023-05-02T00:55:40;24.03;;;11.67;;
74074;SDS011;62428;51.412;5.432;2023-05-02T00:58:07;27.10;;;12.17;;
74074;SDS011;62428;51.412;5.432;2023-05-02T01:00:39;24.70;;;10.57;;
74074;SDS011;62428;51.412;5.432;2023-05-02T01:04:08;24.95;;;10.38;;
74074;SDS011;62428;51.412;5.432;2023-05-02T01:06:26;22.90;;;10.15;;
74074;SDS011;62428;51.412;5.432;2023-05-02T01:14:41;21.67;;;9.90;;
74074;SDS011;62428;51.412;5.432;2023-05-02T01:17:09;19.70;;;9.50;;
74074;SDS011;62428;51.412;5.432;2023-05-02T01:19:42;18.48;;;8.25;;
74074;SDS011;62428;51.412;5.432;2023-05-02T01:22:12;15.13;;;7.47;;
74074;SDS011;62428;51.412;5.432;2023-05-02T01:30:57;18.02;;;7.68;;
74074;SDS011;62428;51.412;5.432;2023-05-02T01:33:25;14.63;;;6.72;;
74074;SDS011;62428;51.412;5.432;2023-05-02T01:35:54;15.15;;;7.10;;
74074;SDS011;62428;51.412;5.432;2023-05-02T01:38:21;16.73;;;7.07;;
74074;SDS011;62428;51.412;5.432;2023-05-02T01:40:49;13.98;;;6.25;;
74074;SDS011;62428;51.412;5.432;2023-05-02T01:43:15;15.00;;;6.40;;
74074;SDS011;62428;51.412;5.432;2023-05-02T01:45:44;15.57;;;5.68;;
74074;SDS011;62428;51.412;5.432;2023-05-02T01:48:12;15.80;;;6.10;;
74074;SDS011;62428;51.412;5.432;2023-05-02T01:50:40;15.43;;;6.03;;
74074;SDS011;62428;51.412;5.432;2023-05-02T01:53:08;12.18;;;4.97;;
74074;SDS011;62428;51.412;5.432;2023-05-02T01:55:35;13.30;;;6.50;;
74074;SDS011;62428;51.412;5.432;2023-05-02T01:58:02;13.10;;;6.03;;
74074;SDS011;62428;51.412;5.432;2023-05-02T02:00:29;12.27;;;5.18;;
74074;SDS011;62428;51.412;5.432;2023-05-02T02:02:56;15.17;;;5.73;;
74074;SDS011;62428;51.412;5.432;2023-05-02T02:05:23;12.98;;;4.88;;
74074;SDS011;62428;51.412;5.432;2023-05-02T02:07:49;12.00;;;4.82;;
74074;SDS011;62428;51.412;5.432;2023-05-02T02:10:14;9.80;;;4.60;;
74074;SDS011;62428;51.412;5.432;2023-05-02T02:12:53;11.43;;;4.77;;
74074;SDS011;62428;51.412;5.432;2023-05-02T02:15:27;11.73;;;5.25;;
74074;SDS011;62428;51.412;5.432;2023-05-02T02:18:13;9.55;;;4.93;;
74074;SDS011;62428;51.412;5.432;2023-05-02T02:20:45;14.38;;;5.60;;
74074;SDS011;62428;51.412;5.432;2023-05-02T02:23:12;10.30;;;4.80;;
74074;SDS011;62428;51.412;5.432;2023-05-02T02:25:39;14.37;;;5.43;;
74074;SDS011;62428;51.412;5.432;2023-05-02T02:28:06;9.77;;;4.63;;
74074;SDS011;62428;51.412;5.432;2023-05-02T02:30:31;11.45;;;5.63;;
74074;SDS011;62428;51.412;5.432;2023-05-02T02:32:57;16.23;;;6.33;;
74074;SDS011;62428;51.412;5.432;2023-05-02T02:35:22;12.53;;;6.07;;
74074;SDS011;62428;51.412;5.432;2023-05-02T02:38:19;16.48;;;6.63;;
74074;SDS011;62428;51.412;5.432;2023-05-02T02:40:54;13.45;;;6.20;;
74074;SDS011;62428;51.412;5.432;2023-05-02T02:43:23;18.10;;;6.80;;
74074;SDS011;62428;51.412;5.432;2023-05-02T02:48:56;12.88;;;6.38;;
74074;SDS011;62428;51.412;5.432;2023-05-02T02:51:37;14.60;;;6.63;;
74074;SDS011;62428;51.412;5.432;2023-05-02T02:56:44;16.08;;;7.00;;
74074;SDS011;62428;51.412;5.432;2023-05-02T02:59:13;15.88;;;6.97;;
74074;SDS011;62428;51.412;5.432;2023-05-02T03:01:40;16.55;;;7.40;;
74074;SDS011;62428;51.412;5.432;2023-05-02T03:04:10;14.48;;;6.88;;
74074;SDS011;62428;51.412;5.432;2023-05-02T03:06:37;14.07;;;6.85;;
74074;SDS011;62428;51.412;5.432;2023-05-02T03:09:03;15.25;;;6.78;;
74074;SDS011;62428;51.412;5.432;2023-05-02T03:11:28;12.73;;;6.53;;
74074;SDS011;62428;51.412;5.432;2023-05-02T03:13:54;19.88;;;7.57;;
74074;SDS011;62428;51.412;5.432;2023-05-02T03:16:35;17.15;;;7.10;;
74074;SDS011;62428;51.412;5.432;2023-05-02T03:19:04;15.50;;;7.10;;
74074;SDS011;62428;51.412;5.432;2023-05-02T03:21:30;14.85;;;6.97;;
74074;SDS011;62428;51.412;5.432;2023-05-02T03:24:04;11.87;;;6.40;;
74074;SDS011;62428;51.412;5.432;2023-05-02T03:26:30;13.90;;;5.80;;
74074;SDS011;62428;51.412;5.432;2023-05-02T03:28:55;12.60;;;5.33;;
74074;SDS011;62428;51.412;5.432;2023-05-02T03:31:21;15.02;;;5.53;;
74074;SDS011;62428;51.412;5.432;2023-05-02T03:33:47;14.67;;;5.20;;
74074;SDS011;62428;51.412;5.432;2023-05-02T03:36:13;12.60;;;5.65;;
74074;SDS011;62428;51.412;5.432;2023-05-02T03:38:39;12.75;;;5.63;;
74074;SDS011;62428;51.412;5.432;2023-05-02T03:41:04;18.07;;;6.13;;
74074;SDS011;62428;51.412;5.432;2023-05-02T03:43:30;14.70;;;5.90;;
74074;SDS011;62428;51.412;5.432;2023-05-02T03:45:55;13.63;;;5.82;;
74074;SDS011;62428;51.412;5.432;2023-05-02T03:48:21;13.85;;;5.90;;
74074;SDS011;62428;51.412;5.432;2023-05-02T03:50:46;13.43;;;5.43;;
74074;SDS011;62428;51.412;5.432;2023-05-02T03:53:12;12.27;;;5.10;;
74074;SDS011;62428;51.412;5.432;2023-05-02T03:55:40;11.20;;;5.20;;
74074;SDS011;62428;51.412;5.432;2023-05-02T03:58:09;12.75;;;5.20;;
74074;SDS011;62428;51.412;5.432;2023-05-02T04:00:35;9.93;;;5.60;;
74074;SDS011;62428;51.412;5.432;2023-05-02T04:03:01;18.15;;;5.60;;
74074;SDS011;62428;51.412;5.432;2023-05-02T04:05:26;10.17;;;5.00;;
74074;SDS011;62428;51.412;5.432;2023-05-02T04:07:52;12.57;;;5.35;;
74074;SDS011;62428;51.412;5.432;2023-05-02T04:10:18;10.55;;;5.47;;
74074;SDS011;62428;51.412;5.432;2023-05-02T04:12:43;14.75;;;5.40;;
74074;SDS011;62428;51.412;5.432;2023-05-02T04:15:09;12.53;;;5.63;;
74074;SDS011;62428;51.412;5.432;2023-05-02T04:17:35;13.60;;;5.40;;
74074;SDS011;62428;51.412;5.432;2023-05-02T04:20:01;10.25;;;5.45;;
74074;SDS011;62428;51.412;5.432;2023-05-02T04:22:27;13.07;;;5.03;;
74074;SDS011;62428;51.412;5.432;2023-05-02T04:24:52;7.13;;;3.87;;
74074;SDS011;62428;51.412;5.432;2023-05-02T04:27:19;11.88;;;4.35;;
74074;SDS011;62428;51.412;5.432;2023-05-02T04:29:48;10.07;;;3.67;;
74074;SDS011;62428;51.412;5.432;2023-05-02T04:32:14;8.90;;;3.00;;
74074;SDS011;62428;51.412;5.432;2023-05-02T04:34:40;11.73;;;3.33;;
74074;SDS011;62428;51.412;5.432;2023-05-02T04:37:05;6.43;;;2.90;;
74074;SDS011;62428;51.412;5.432;2023-05-02T04:39:31;7.28;;;2.95;;
74074;SDS011;62428;51.412;5.432;2023-05-02T04:41:57;9.85;;;2.33;;
74074;SDS011;62428;51.412;5.432;2023-05-02T04:44:22;12.27;;;2.90;;
74074;SDS011;62428;51.412;5.432;2023-05-02T04:46:47;10.07;;;2.70;;
74074;SDS011;62428;51.412;5.432;2023-05-02T04:49:13;7.67;;;2.47;;
74074;SDS011;62428;51.412;5.432;2023-05-02T04:51:38;10.13;;;2.80;;
74074;SDS011;62428;51.412;5.432;2023-05-02T04:54:03;7.40;;;2.90;;
74074;SDS011;62428;51.412;5.432;2023-05-02T04:56:29;7.23;;;2.90;;
74074;SDS011;62428;51.412;5.432;2023-05-02T04:58:54;9.90;;;3.47;;
74074;SDS011;62428;51.412;5.432;2023-05-02T05:01:19;9.18;;;2.35;;
74074;SDS011;62428;51.412;5.432;2023-05-02T05:03:45;7.90;;;1.70;;
74074;SDS011;62428;51.412;5.432;2023-05-02T05:06:10;8.80;;;1.40;;
74074;SDS011;62428;51.412;5.432;2023-05-02T05:08:36;10.68;;;1.17;;
74074;SDS011;62428;51.412;5.432;2023-05-02T05:11:01;4.63;;;0.90;;
74074;SDS011;62428;51.412;5.432;2023-05-02T05:13:29;4.55;;;0.98;;
74074;SDS011;62428;51.412;5.432;2023-05-02T05:15:54;4.30;;;0.87;;
74074;SDS011;62428;51.412;5.432;2023-05-02T05:18:20;3.47;;;0.70;;
74074;SDS011;62428;51.412;5.432;2023-05-02T05:20:45;5.47;;;0.90;;
74074;SDS011;62428;51.412;5.432;2023-05-02T05:23:11;5.13;;;0.67;;
74074;SDS011;62428;51.412;5.432;2023-05-02T05:25:36;4.70;;;1.00;;
74074;SDS011;62428;51.412;5.432;2023-05-02T05:28:01;6.93;;;0.80;;
74074;SDS011;62428;51.412;5.432;2023-05-02T05:30:27;4.10;;;0.77;;
74074;SDS011;62428;51.412;5.432;2023-05-02T05:32:55;3.72;;;0.90;;
74074;SDS011;62428;51.412;5.432;2023-05-02T05:35:20;7.95;;;1.10;;
74074;SDS011;62428;51.412;5.432;2023-05-02T05:37:46;6.83;;;1.07;;
74074;SDS011;62428;51.412;5.432;2023-05-02T05:40:11;2.60;;;0.70;;
74074;SDS011;62428;51.412;5.432;2023-05-02T05:42:36;5.20;;;0.50;;
74074;SDS011;62428;51.412;5.432;2023-05-02T05:45:02;4.28;;;0.60;;
74074;SDS011;62428;51.412;5.432;2023-05-02T05:47:27;4.97;;;0.65;;
74074;SDS011;62428;51.412;5.432;2023-05-02T05:49:53;7.60;;;0.80;;
74074;SDS011;62428;51.412;5.432;2023-05-02T05:52:19;7.30;;;1.00;;
74074;SDS011;62428;51.412;5.432;2023-05-02T05:54:45;3.20;;;0.70;;
74074;SDS011;62428;51.412;5.432;2023-05-02T05:57:10;4.75;;;0.90;;
74074;SDS011;62428;51.412;5.432;2023-05-02T05:59:36;5.03;;;0.70;;
74074;SDS011;62428;51.412;5.432;2023-05-02T06:02:01;5.90;;;0.70;;
74074;SDS011;62428;51.412;5.432;2023-05-02T06:04:27;2.85;;;0.63;;
74074;SDS011;62428;51.412;5.432;2023-05-02T06:06:53;3.53;;;0.80;;
74074;SDS011;62428;51.412;5.432;2023-05-02T06:09:19;3.40;;;0.77;;
74074;SDS011;62428;51.412;5.432;2023-05-02T06:11:44;4.23;;;0.80;;
74074;SDS011;62428;51.412;5.432;2023-05-02T06:14:09;3.25;;;0.80;;
74074;SDS011;62428;51.412;5.432;2023-05-02T06:16:35;4.18;;;0.50;;
74074;SDS011;62428;51.412;5.432;2023-05-02T06:19:00;3.90;;;0.63;;
74074;SDS011;62428;51.412;5.432;2023-05-02T06:21:25;3.17;;;0.60;;
74074;SDS011;62428;51.412;5.432;2023-05-02T06:23:51;3.90;;;0.70;;
74074;SDS011;62428;51.412;5.432;2023-05-02T06:26:17;3.90;;;0.77;;
74074;SDS011;62428;51.412;5.432;2023-05-02T06:28:42;1.80;;;0.40;;
74074;SDS011;62428;51.412;5.432;2023-05-02T06:31:08;11.25;;;1.00;;
74074;SDS011;62428;51.412;5.432;2023-05-02T06:33:34;2.30;;;0.50;;
74074;SDS011;62428;51.412;5.432;2023-05-02T06:36:00;11.95;;;2.15;;
74074;SDS011;62428;51.412;5.432;2023-05-02T06:38:25;3.13;;;0.60;;
74074;SDS011;62428;51.412;5.432;2023-05-02T06:40:50;6.30;;;0.50;;
74074;SDS011;62428;51.412;5.432;2023-05-02T06:43:16;7.72;;;0.93;;
74074;SDS011;62428;51.412;5.432;2023-05-02T06:45:42;4.95;;;0.50;;
74074;SDS011;62428;51.412;5.432;2023-05-02T06:48:08;5.00;;;0.80;;
74074;SDS011;62428;51.412;5.432;2023-05-02T06:50:34;2.60;;;0.50;;
74074;SDS011;62428;51.412;5.432;2023-05-02T06:53:00;4.00;;;0.70;;
74074;SDS011;62428;51.412;5.432;2023-05-02T06:55:25;4.60;;;0.70;;
74074;SDS011;62428;51.412;5.432;2023-05-02T06:57:51;5.47;;;0.75;;
74074;SDS011;62428;51.412;5.432;2023-05-02T07:00:18;10.15;;;0.88;;
74074;SDS011;62428;51.412;5.432;2023-05-02T07:02:45;3.80;;;0.65;;
74074;SDS011;62428;51.412;5.432;2023-05-02T07:05:11;3.70;;;0.60;;
74074;SDS011;62428;51.412;5.432;2023-05-02T07:07:39;6.95;;;0.80;;
74074;SDS011;62428;51.412;5.432;2023-05-02T07:10:05;3.80;;;0.70;;
74074;SDS011;62428;51.412;5.432;2023-05-02T07:12:30;6.30;;;0.75;;
74074;SDS011;62428;51.412;5.432;2023-05-02T07:14:56;6.33;;;0.80;;
74074;SDS011;62428;51.412;5.432;2023-05-02T07:17:21;5.23;;;0.63;;
74074;SDS011;62428;51.412;5.432;2023-05-02T07:19:47;6.55;;;0.90;;
74074;SDS011;62428;51.412;5.432;2023-05-02T07:22:12;3.90;;;0.63;;
74074;SDS011;62428;51.412;5.432;2023-05-02T07:24:39;6.03;;;0.80;;
74074;SDS011;62428;51.412;5.432;2023-05-02T07:27:05;5.60;;;0.85;;
74074;SDS011;62428;51.412;5.432;2023-05-02T07:29:32;6.60;;;1.08;;
74074;SDS011;62428;51.412;5.432;2023-05-02T07:31:57;7.10;;;0.80;;
74074;SDS011;62428;51.412;5.432;2023-05-02T07:34:22;8.93;;;1.70;;
74074;SDS011;62428;51.412;5.432;2023-05-02T07:36:48;5.60;;;0.90;;
74074;SDS011;62428;51.412;5.432;2023-05-02T07:39:13;9.00;;;1.30;;
74074;SDS011;62428;51.412;5.432;2023-05-02T07:41:39;4.37;;;1.00;;
74074;SDS011;62428;51.412;5.432;2023-05-02T07:44:04;9.55;;;0.80;;
74074;SDS011;62428;51.412;5.432;2023-05-02T07:46:29;9.07;;;0.85;;
74074;SDS011;62428;51.412;5.432;2023-05-02T07:48:55;6.47;;;0.90;;
74074;SDS011;62428;51.412;5.432;2023-05-02T07:51:20;8.43;;;1.10;;
74074;SDS011;62428;51.412;5.432;2023-05-02T07:53:48;5.50;;;1.08;;
74074;SDS011;62428;51.412;5.432;2023-05-02T07:56:15;6.60;;;1.07;;
74074;SDS011;62428;51.412;5.432;2023-05-02T07:58:41;4.80;;;0.90;;
74074;SDS011;62428;51.412;5.432;2023-05-02T08:01:06;10.23;;;1.15;;
74074;SDS011;62428;51.412;5.432;2023-05-02T08:03:32;4.27;;;0.80;;
74074;SDS011;62428;51.412;5.432;2023-05-02T08:05:57;9.80;;;1.30;;
74074;SDS011;62428;51.412;5.432;2023-05-02T08:08:22;6.70;;;1.00;;
74074;SDS011;62428;51.412;5.432;2023-05-02T08:10:48;9.90;;;1.33;;
74074;SDS011;62428;51.412;5.432;2023-05-02T08:13:15;6.07;;;0.70;;
74074;SDS011;62428;51.412;5.432;2023-05-02T08:15:41;6.55;;;1.38;;
74074;SDS011;62428;51.412;5.432;2023-05-02T08:18:06;6.77;;;0.90;;
74074;SDS011;62428;51.412;5.432;2023-05-02T08:20:31;7.80;;;1.10;;
74074;SDS011;62428;51.412;5.432;2023-05-02T08:22:57;9.97;;;1.23;;
74074;SDS011;62428;51.412;5.432;2023-05-02T08:25:22;20.52;;;1.85;;
74074;SDS011;62428;51.412;5.432;2023-05-02T08:27:47;16.17;;;2.08;;
74074;SDS011;62428;51.412;5.432;2023-05-02T08:30:13;41.33;;;3.03;;
74074;SDS011;62428;51.412;5.432;2023-05-02T08:32:38;7.67;;;1.40;;
74074;SDS011;62428;51.412;5.432;2023-05-02T08:35:03;8.67;;;1.40;;
74074;SDS011;62428;51.412;5.432;2023-05-02T08:37:29;7.57;;;1.20;;
74074;SDS011;62428;51.412;5.432;2023-05-02T08:39:56;8.65;;;1.20;;
74074;SDS011;62428;51.412;5.432;2023-05-02T08:42:21;8.35;;;1.20;;
74074;SDS011;62428;51.412;5.432;2023-05-02T08:44:48;5.93;;;0.88;;
74074;SDS011;62428;51.412;5.432;2023-05-02T08:47:14;9.00;;;1.52;;
74074;SDS011;62428;51.412;5.432;2023-05-02T08:49:39;10.60;;;1.08;;
74074;SDS011;62428;51.412;5.432;2023-05-02T08:52:05;8.60;;;1.30;;
74074;SDS011;62428;51.412;5.432;2023-05-02T08:54:33;5.88;;;0.90;;
74074;SDS011;62428;51.412;5.432;2023-05-02T08:57:02;6.60;;;1.00;;
74074;SDS011;62428;51.412;5.432;2023-05-02T08:59:28;8.30;;;1.17;;
74074;SDS011;62428;51.412;5.432;2023-05-02T09:01:54;6.25;;;1.00;;
74074;SDS011;62428;51.412;5.432;2023-05-02T09:04:45;6.77;;;0.73;;
74074;SDS011;62428;51.412;5.432;2023-05-02T09:07:17;6.40;;;0.98;;
74074;SDS011;62428;51.412;5.432;2023-05-02T09:09:42;7.43;;;1.10;;
74074;SDS011;62428;51.412;5.432;2023-05-02T09:12:07;4.78;;;0.82;;
74074;SDS011;62428;51.412;5.432;2023-05-02T09:14:33;7.50;;;0.73;;
74074;SDS011;62428;51.412;5.432;2023-05-02T09:16:58;7.07;;;0.93;;
74074;SDS011;62428;51.412;5.432;2023-05-02T09:19:24;9.40;;;0.80;;
74074;SDS011;62428;51.412;5.432;2023-05-02T09:21:51;12.48;;;1.20;;
74074;SDS011;62428;51.412;5.432;2023-05-02T09:24:17;8.97;;;1.17;;
74074;SDS011;62428;51.412;5.432;2023-05-02T09:26:55;8.80;;;1.20;;
74074;SDS011;62428;51.412;5.432;2023-05-02T09:29:28;4.78;;;0.90;;
74074;SDS011;62428;51.412;5.432;2023-05-02T09:31:59;11.57;;;1.25;;
74074;SDS011;62428;51.412;5.432;2023-05-02T09:34:25;6.50;;;0.80;;
74074;SDS011;62428;51.412;5.432;2023-05-02T09:36:50;3.13;;;0.80;;
74074;SDS011;62428;51.412;5.432;2023-05-02T09:39:24;6.95;;;1.30;;
74074;SDS011;62428;51.412;5.432;2023-05-02T09:41:53;4.95;;;0.93;;
74074;SDS011;62428;51.412;5.432;2023-05-02T09:44:21;7.70;;;0.60;;
74074;SDS011;62428;51.412;5.432;2023-05-02T09:49:15;6.00;;;0.70;;
74074;SDS011;62428;51.412;5.432;2023-05-02T09:51:44;6.00;;;1.10;;
74074;SDS011;62428;51.412;5.432;2023-05-02T09:54:11;8.05;;;1.20;;
74074;SDS011;62428;51.412;5.432;2023-05-02T09:56:53;4.75;;;1.33;;
74074;SDS011;62428;51.412;5.432;2023-05-02T09:59:22;5.25;;;1.40;;
74074;SDS011;62428;51.412;5.432;2023-05-02T10:01:55;6.27;;;1.10;;
74074;SDS011;62428;51.412;5.432;2023-05-02T10:04:22;5.68;;;0.88;;
74074;SDS011;62428;51.412;5.432;2023-05-02T10:06:49;6.30;;;1.17;;
74074;SDS011;62428;51.412;5.432;2023-05-02T10:09:15;5.97;;;0.98;;
74074;SDS011;62428;51.412;5.432;2023-05-02T10:11:43;6.20;;;1.08;;
74074;SDS011;62428;51.412;5.432;2023-05-02T10:14:09;8.73;;;1.33;;
74074;SDS011;62428;51.412;5.432;2023-05-02T10:16:37;7.25;;;1.20;;
74074;SDS011;62428;51.412;5.432;2023-05-02T10:19:11;24.02;;;1.80;;
74074;SDS011;62428;51.412;5.432;2023-05-02T10:21:43;6.50;;;1.15;;
74074;SDS011;62428;51.412;5.432;2023-05-02T10:24:09;5.60;;;1.23;;
74074;SDS011;62428;51.412;5.432;2023-05-02T10:26:36;5.15;;;1.08;;
74074;SDS011;62428;51.412;5.432;2023-05-02T10:29:02;8.35;;;1.38;;
74074;SDS011;62428;51.412;5.432;2023-05-02T10:31:31;4.23;;;0.97;;
74074;SDS011;62428;51.412;5.432;2023-05-02T10:33:58;5.53;;;0.90;;
74074;SDS011;62428;51.412;5.432;2023-05-02T10:36:25;3.38;;;0.70;;
74074;SDS011;62428;51.412;5.432;2023-05-02T10:38:51;5.83;;;1.73;;
74074;SDS011;62428;51.412;5.432;2023-05-02T10:41:18;5.37;;;1.30;;
74074;SDS011;62428;51.412;5.432;2023-05-02T10:43:48;3.83;;;0.88;;
74074;SDS011;62428;51.412;5.432;2023-05-02T10:51:33;4.82;;;0.98;;
74074;SDS011;62428;51.412;5.432;2023-05-02T10:59:39;6.53;;;1.33;;
74074;SDS011;62428;51.412;5.432;2023-05-02T11:05:05;6.90;;;1.50;;
74074;SDS011;62428;51.412;5.432;2023-05-02T11:07:33;5.18;;;1.15;;
74074;SDS011;62428;51.412;5.432;2023-05-02T11:12:55;4.72;;;1.30;;
74074;SDS011;62428;51.412;5.432;2023-05-02T11:18:03;5.53;;;1.20;;
74074;SDS011;62428;51.412;5.432;2023-05-02T11:20:34;14.18;;;1.85;;
74074;SDS011;62428;51.412;5.432;2023-05-02T11:25:40;11.05;;;2.08;;
74074;SDS011;62428;51.412;5.432;2023-05-02T11:28:56;8.95;;;1.42;;
74074;SDS011;62428;51.412;5.432;2023-05-02T11:33:59;10.98;;;1.52;;
74074;SDS011;62428;51.412;5.432;2023-05-02T11:36:29;4.85;;;1.25;;
74074;SDS011;62428;51.412;5.432;2023-05-02T11:38:57;5.18;;;1.30;;
74074;SDS011;62428;51.412;5.432;2023-05-02T11:41:23;15.20;;;2.70;;
74074;SDS011;62428;51.412;5.432;2023-05-02T11:44:02;14.38;;;1.67;;
74074;SDS011;62428;51.412;5.432;2023-05-02T11:46:28;7.90;;;1.45;;
74074;SDS011;62428;51.412;5.432;2023-05-02T11:48:53;8.50;;;1.67;;
74074;SDS011;62428;51.412;5.432;2023-05-02T11:51:21;8.88;;;1.67;;
74074;SDS011;62428;51.412;5.432;2023-05-02T11:53:47;3.87;;;1.10;;
74074;SDS011;62428;51.412;5.432;2023-05-02T11:56:12;17.40;;;1.90;;
74074;SDS011;62428;51.412;5.432;2023-05-02T11:58:38;19.20;;;2.17;;
74074;SDS011;62428;51.412;5.432;2023-05-02T12:01:10;15.18;;;2.30;;
74074;SDS011;62428;51.412;5.432;2023-05-02T12:03:37;9.93;;;1.35;;
74074;SDS011;62428;51.412;5.432;2023-05-02T12:06:12;5.95;;;1.52;;
74074;SDS011;62428;51.412;5.432;2023-05-02T12:08:40;6.68;;;1.60;;
74074;SDS011;62428;51.412;5.432;2023-05-02T12:11:06;12.65;;;1.60;;
74074;SDS011;62428;51.412;5.432;2023-05-02T12:13:31;5.67;;;1.53;;
74074;SDS011;62428;51.412;5.432;2023-05-02T12:15:57;10.05;;;1.48;;
74074;SDS011;62428;51.412;5.432;2023-05-02T12:18:23;7.13;;;1.80;;
74074;SDS011;62428;51.412;5.432;2023-05-02T12:20:51;8.40;;;1.55;;
74074;SDS011;62428;51.412;5.432;2023-05-02T12:23:18;8.53;;;1.50;;
74074;SDS011;62428;51.412;5.432;2023-05-02T12:25:45;12.45;;;1.88;;
74074;SDS011;62428;51.412;5.432;2023-05-02T12:28:10;8.97;;;1.50;;
74074;SDS011;62428;51.412;5.432;2023-05-02T12:30:36;7.72;;;1.25;;
74074;SDS011;62428;51.412;5.432;2023-05-02T12:33:03;3.97;;;1.35;;
74074;SDS011;62428;51.412;5.432;2023-05-02T12:35:29;13.35;;;1.70;;
74074;SDS011;62428;51.412;5.432;2023-05-02T12:38:06;7.72;;;1.70;;
74074;SDS011;62428;51.412;5.432;2023-05-02T12:40:45;6.40;;;1.50;;
74074;SDS011;62428;51.412;5.432;2023-05-02T12:43:12;4.82;;;1.30;;
74074;SDS011;62428;51.412;5.432;2023-05-02T12:45:37;7.67;;;1.67;;
74074;SDS011;62428;51.412;5.432;2023-05-02T12:48:16;4.50;;;1.37;;
74074;SDS011;62428;51.412;5.432;2023-05-02T12:50:46;7.13;;;1.15;;
74074;SDS011;62428;51.412;5.432;2023-05-02T12:53:12;8.82;;;1.30;;
74074;SDS011;62428;51.412;5.432;2023-05-02T12:55:37;6.27;;;1.40;;
74074;SDS011;62428;51.412;5.432;2023-05-02T12:58:04;4.37;;;1.40;;
74074;SDS011;62428;51.412;5.432;2023-05-02T13:00:31;4.93;;;0.95;;
74074;SDS011;62428;51.412;5.432;2023-05-02T13:02:57;4.80;;;1.70;;
74074;SDS011;62428;51.412;5.432;2023-05-02T13:05:23;5.10;;;1.37;;
74074;SDS011;62428;51.412;5.432;2023-05-02T13:07:48;3.65;;;1.05;;
74074;SDS011;62428;51.412;5.432;2023-05-02T13:10:14;5.77;;;1.00;;
74074;SDS011;62428;51.412;5.432;2023-05-02T13:12:42;6.40;;;1.70;;
74074;SDS011;62428;51.412;5.432;2023-05-02T13:15:07;4.03;;;1.10;;
74074;SDS011;62428;51.412;5.432;2023-05-02T13:17:33;3.90;;;1.25;;
74074;SDS011;62428;51.412;5.432;2023-05-02T13:19:59;5.22;;;1.40;;
74074;SDS011;62428;51.412;5.432;2023-05-02T13:22:25;10.20;;;1.50;;
74074;SDS011;62428;51.412;5.432;2023-05-02T13:24:51;5.30;;;1.45;;
74074;SDS011;62428;51.412;5.432;2023-05-02T13:27:17;8.20;;;1.67;;
74074;SDS011;62428;51.412;5.432;2023-05-02T13:29:43;5.07;;;1.30;;
74074;SDS011;62428;51.412;5.432;2023-05-02T13:32:09;6.63;;;1.45;;
74074;SDS011;62428;51.412;5.432;2023-05-02T13:34:34;5.53;;;1.10;;
74074;SDS011;62428;51.412;5.432;2023-05-02T13:37:00;4.13;;;1.30;;
74074;SDS011;62428;51.412;5.432;2023-05-02T13:39:25;3.70;;;1.30;;
74074;SDS011;62428;51.412;5.432;2023-05-02T13:41:50;4.13;;;1.83;;
74074;SDS011;62428;51.412;5.432;2023-05-02T13:44:16;6.13;;;1.47;;
74074;SDS011;62428;51.412;5.432;2023-05-02T13:46:41;4.97;;;1.20;;
74074;SDS011;62428;51.412;5.432;2023-05-02T13:49:06;3.23;;;1.43;;
74074;SDS011;62428;51.412;5.432;2023-05-02T13:51:32;4.70;;;1.20;;
74074;SDS011;62428;51.412;5.432;2023-05-02T13:53:57;5.20;;;1.67;;
74074;SDS011;62428;51.412;5.432;2023-05-02T13:56:23;7.57;;;1.75;;
74074;SDS011;62428;51.412;5.432;2023-05-02T13:58:48;3.93;;;1.33;;
74074;SDS011;62428;51.412;5.432;2023-05-02T14:01:14;5.15;;;1.77;;
74074;SDS011;62428;51.412;5.432;2023-05-02T14:03:39;6.80;;;1.40;;
74074;SDS011;62428;51.412;5.432;2023-05-02T14:06:05;14.50;;;1.77;;
74074;SDS011;62428;51.412;5.432;2023-05-02T14:08:30;7.93;;;2.07;;
74074;SDS011;62428;51.412;5.432;2023-05-02T14:10:55;5.53;;;1.70;;
74074;SDS011;62428;51.412;5.432;2023-05-02T14:13:21;4.27;;;1.60;;
74074;SDS011;62428;51.412;5.432;2023-05-02T14:15:46;8.03;;;1.60;;
74074;SDS011;62428;51.412;5.432;2023-05-02T14:18:12;9.63;;;1.83;;
74074;SDS011;62428;51.412;5.432;2023-05-02T14:20:37;9.50;;;1.23;;
74074;SDS011;62428;51.412;5.432;2023-05-02T14:23:02;4.97;;;1.43;;
74074;SDS011;62428;51.412;5.432;2023-05-02T14:25:28;4.97;;;1.87;;
74074;SDS011;62428;51.412;5.432;2023-05-02T14:27:53;4.50;;;1.33;;
74074;SDS011;62428;51.412;5.432;2023-05-02T14:30:18;4.97;;;2.00;;
74074;SDS011;62428;51.412;5.432;2023-05-02T14:32:44;9.00;;;1.50;;
74074;SDS011;62428;51.412;5.432;2023-05-02T14:35:09;5.87;;;2.20;;
74074;SDS011;62428;51.412;5.432;2023-05-02T14:37:35;5.37;;;1.20;;
74074;SDS011;62428;51.412;5.432;2023-05-02T14:40:00;5.97;;;1.67;;
74074;SDS011;62428;51.412;5.432;2023-05-02T14:42:25;3.38;;;1.70;;
74074;SDS011;62428;51.412;5.432;2023-05-02T14:44:51;7.93;;;1.53;;
74074;SDS011;62428;51.412;5.432;2023-05-02T14:47:16;5.83;;;1.60;;
74074;SDS011;62428;51.412;5.432;2023-05-02T14:49:42;3.00;;;1.77;;
74074;SDS011;62428;51.412;5.432;2023-05-02T14:52:07;4.95;;;1.73;;
74074;SDS011;62428;51.412;5.432;2023-05-02T14:54:33;6.20;;;1.87;;
74074;SDS011;62428;51.412;5.432;2023-05-02T14:56:58;6.77;;;1.70;;
74074;SDS011;62428;51.412;5.432;2023-05-02T14:59:29;6.78;;;2.05;;
74074;SDS011;62428;51.412;5.432;2023-05-02T15:01:55;4.20;;;1.83;;
74074;SDS011;62428;51.412;5.432;2023-05-02T15:04:20;5.97;;;2.10;;
74074;SDS011;62428;51.412;5.432;2023-05-02T15:06:46;4.28;;;1.75;;
74074;SDS011;62428;51.412;5.432;2023-05-02T15:09:12;7.03;;;2.40;;
74074;SDS011;62428;51.412;5.432;2023-05-02T15:11:38;5.05;;;1.90;;
74074;SDS011;62428;51.412;5.432;2023-05-02T15:14:03;5.35;;;1.80;;
74074;SDS011;62428;51.412;5.432;2023-05-02T15:16:29;6.67;;;1.80;;
74074;SDS011;62428;51.412;5.432;2023-05-02T15:18:54;5.37;;;1.70;;
74074;SDS011;62428;51.412;5.432;2023-05-02T15:21:19;5.37;;;2.20;;
74074;SDS011;62428;51.412;5.432;2023-05-02T15:23:45;4.80;;;1.92;;
74074;SDS011;62428;51.412;5.432;2023-05-02T15:26:11;9.83;;;2.10;;
74074;SDS011;62428;51.412;5.432;2023-05-02T15:28:37;9.75;;;2.03;;